createdAt,value
2022-11-29T00:01:32.408Z,14.45
2022-11-29T00:03:59.845Z,13.32
2022-11-29T00:06:30.881Z,13.40
2022-11-29T00:09:06.168Z,12.60
2022-11-29T00:11:54.297Z,11.55
2022-11-29T00:14:22.875Z,14.35
2022-11-29T00:16:52.829Z,15.38
2022-11-29T00:19:20.579Z,14.00
2022-11-29T00:21:47.619Z,13.50
2022-11-29T00:24:14.927Z,14.20
2022-11-29T00:26:41.954Z,14.30
2022-11-29T00:29:11.959Z,12.70
2022-11-29T00:31:40.015Z,13.60
2022-11-29T00:34:07.688Z,13.77
2022-11-29T00:36:35.550Z,12.65
2022-11-29T00:39:04.945Z,13.98
2022-11-29T00:41:32.650Z,13.93
2022-11-29T00:43:59.713Z,16.83
2022-11-29T00:46:26.877Z,17.60
2022-11-29T00:48:53.898Z,15.10
2022-11-29T00:51:20.905Z,14.70
2022-11-29T00:53:48.104Z,12.88
2022-11-29T00:56:15.308Z,13.50
2022-11-29T00:58:43.493Z,13.57
2022-11-29T01:01:11.643Z,13.60
2022-11-29T01:03:38.905Z,15.85
2022-11-29T01:06:15.370Z,16.92
2022-11-29T01:08:43.163Z,14.70
2022-11-29T01:11:22.374Z,14.65
2022-11-29T01:13:51.241Z,14.50
2022-11-29T01:16:18.622Z,16.38
2022-11-29T01:18:45.753Z,16.48
2022-11-29T01:21:22.819Z,16.38
2022-11-29T01:23:51.488Z,16.48
2022-11-29T01:26:24.483Z,16.02
2022-11-29T01:28:53.638Z,15.65
2022-11-29T01:31:24.503Z,15.68
2022-11-29T01:33:55.531Z,14.32
2022-11-29T01:36:23.750Z,15.45
2022-11-29T01:38:51.501Z,14.25
2022-11-29T01:41:22.326Z,16.15
2022-11-29T01:43:58.663Z,13.98
2022-11-29T01:46:27.074Z,15.35
2022-11-29T01:48:57.424Z,14.32
2022-11-29T01:51:27.460Z,14.45
2022-11-29T01:53:55.707Z,14.52
2022-11-29T01:56:24.207Z,15.52
2022-11-29T01:58:51.641Z,15.25
2022-11-29T02:01:18.951Z,14.68
2022-11-29T02:03:46.619Z,16.42
2022-11-29T02:06:15.847Z,17.35
2022-11-29T02:08:43.735Z,19.42
2022-11-29T02:11:28.940Z,19.10
2022-11-29T02:14:33.041Z,18.90
2022-11-29T02:17:30.858Z,18.70
2022-11-29T02:20:00.596Z,19.73
2022-11-29T02:22:41.248Z,17.83
2022-11-29T02:25:32.571Z,15.95
2022-11-29T02:28:33.892Z,15.60
2022-11-29T02:31:33.494Z,16.35
2022-11-29T02:34:06.295Z,16.20
2022-11-29T02:36:36.217Z,16.42
2022-11-29T02:39:15.141Z,16.38
2022-11-29T02:42:12.701Z,15.55
2022-11-29T02:44:54.187Z,14.20
2022-11-29T02:47:32.476Z,14.63
2022-11-29T02:50:08.180Z,14.55
2022-11-29T02:52:47.645Z,13.85
2022-11-29T02:55:29.569Z,15.00
2022-11-29T02:58:06.261Z,14.40
2022-11-29T03:00:38.989Z,18.45
2022-11-29T03:03:31.656Z,18.05
2022-11-29T03:06:36.218Z,18.20
2022-11-29T03:09:17.337Z,17.75
2022-11-29T03:12:07.704Z,14.63
2022-11-29T03:14:59.293Z,12.55
2022-11-29T03:17:40.657Z,13.00
2022-11-29T03:20:23.848Z,12.10
2022-11-29T03:23:14.853Z,12.25
2022-11-29T03:25:54.942Z,12.40
2022-11-29T03:28:28.888Z,11.35
2022-11-29T03:31:11.272Z,10.88
2022-11-29T03:33:54.778Z,11.80
2022-11-29T03:36:30.833Z,11.93
2022-11-29T03:39:03.009Z,11.55
2022-11-29T03:41:39.143Z,12.43
2022-11-29T03:44:18.837Z,12.32
2022-11-29T03:47:04.578Z,14.73
2022-11-29T03:49:47.354Z,16.73
2022-11-29T03:55:08.912Z,15.57
2022-11-29T03:58:01.839Z,14.65
2022-11-29T04:00:50.682Z,16.40
2022-11-29T04:03:37.414Z,16.92
2022-11-29T04:06:24.376Z,15.07
2022-11-29T04:09:43.105Z,15.32
2022-11-29T04:12:28.943Z,14.20
2022-11-29T04:15:32.541Z,16.98
2022-11-29T04:18:36.403Z,14.60
2022-11-29T04:21:39.572Z,14.90
2022-11-29T04:27:10.234Z,15.52
2022-11-29T04:30:08.246Z,13.77
2022-11-29T04:33:10.090Z,14.85
2022-11-29T04:36:12.293Z,16.65
2022-11-29T04:38:39.222Z,15.02
2022-11-29T04:41:19.749Z,15.60
2022-11-29T04:44:07.891Z,17.27
2022-11-29T04:47:03.388Z,15.70
2022-11-29T04:50:01.890Z,16.10
2022-11-29T04:52:40.944Z,14.05
2022-11-29T04:56:02.062Z,17.27
2022-11-29T04:59:04.563Z,16.42
2022-11-29T05:01:50.376Z,16.83
2022-11-29T05:04:26.848Z,21.23
2022-11-29T05:07:11.698Z,23.70
2022-11-29T05:09:55.284Z,22.60
2022-11-29T05:12:29.407Z,20.67
2022-11-29T05:15:17.097Z,21.92
2022-11-29T05:17:58.567Z,20.73
2022-11-29T05:20:41.884Z,20.52
2022-11-29T05:23:46.280Z,23.52
2022-11-29T05:26:22.633Z,21.38
2022-11-29T05:29:05.035Z,20.65
2022-11-29T05:31:55.110Z,21.75
2022-11-29T05:34:35.222Z,19.83
2022-11-29T05:37:11.503Z,20.98
2022-11-29T05:39:47.281Z,19.95
2022-11-29T05:42:44.876Z,20.48
2022-11-29T05:45:24.484Z,20.35
2022-11-29T05:48:02.122Z,19.80
2022-11-29T05:51:03.244Z,19.83
2022-11-29T05:53:39.899Z,20.45
2022-11-29T05:56:44.741Z,20.13
2022-11-29T05:59:28.565Z,19.48
2022-11-29T06:02:04.809Z,17.88
2022-11-29T06:04:39.386Z,17.45
2022-11-29T06:07:26.688Z,17.65
2022-11-29T06:10:02.056Z,16.10
2022-11-29T06:12:35.624Z,16.17
2022-11-29T06:15:33.725Z,16.13
2022-11-29T06:18:49.356Z,16.80
2022-11-29T06:21:38.386Z,18.27
2022-11-29T06:24:21.940Z,17.05
2022-11-29T06:27:10.454Z,16.27
2022-11-29T06:30:07.315Z,17.25
2022-11-29T06:33:01.233Z,19.92
2022-11-29T06:35:40.735Z,19.60
2022-11-29T06:38:20.258Z,18.25
2022-11-29T06:40:48.624Z,19.42
2022-11-29T06:43:16.073Z,17.60
2022-11-29T06:45:50.307Z,21.42
2022-11-29T06:48:25.380Z,19.17
2022-11-29T06:51:08.239Z,18.55
2022-11-29T06:56:41.406Z,16.70
2022-11-29T06:59:27.393Z,16.50
2022-11-29T07:02:20.838Z,16.38
2022-11-29T07:05:12.736Z,17.20
2022-11-29T07:07:41.623Z,19.05
2022-11-29T07:10:15.479Z,15.50
2022-11-29T07:12:43.892Z,13.88
2022-11-29T07:15:20.208Z,16.30
2022-11-29T07:18:02.980Z,15.77
2022-11-29T07:23:25.352Z,18.15
2022-11-29T07:28:56.594Z,20.27
2022-11-29T07:31:45.437Z,17.55
2022-11-29T07:34:38.875Z,15.30
2022-11-29T07:37:52.840Z,15.00
2022-11-29T07:40:26.513Z,15.80
2022-11-29T07:43:17.573Z,15.80
2022-11-29T07:45:45.716Z,15.43
2022-11-29T07:48:13.260Z,14.10
2022-11-29T07:50:40.993Z,14.35
2022-11-29T07:53:15.583Z,13.05
2022-11-29T07:55:42.895Z,12.82
2022-11-29T07:58:12.560Z,14.48
2022-11-29T08:00:40.493Z,13.45
2022-11-29T08:03:08.468Z,12.05
2022-11-29T08:05:36.945Z,13.18
2022-11-29T08:08:04.654Z,13.30
2022-11-29T08:10:31.952Z,12.43
2022-11-29T08:12:58.957Z,12.38
2022-11-29T08:15:26.066Z,12.35
2022-11-29T08:17:53.326Z,13.32
2022-11-29T08:20:20.402Z,14.85
2022-11-29T08:22:58.542Z,14.32
2022-11-29T08:25:27.341Z,14.35
2022-11-29T08:27:54.842Z,14.63
2022-11-29T08:30:22.605Z,13.80
2022-11-29T08:32:51.772Z,12.57
2022-11-29T08:35:21.259Z,12.23
2022-11-29T08:37:48.769Z,14.70
2022-11-29T08:40:16.641Z,14.35
2022-11-29T08:42:43.644Z,13.65
2022-11-29T08:45:11.351Z,13.25
2022-11-29T08:47:41.027Z,13.52
2022-11-29T08:50:16.591Z,12.50
2022-11-29T08:53:04.521Z,15.35
2022-11-29T08:55:34.785Z,14.82
2022-11-29T08:58:08.175Z,16.40
2022-11-29T09:00:37.255Z,16.25
2022-11-29T09:03:25.172Z,18.63
2022-11-29T09:05:52.830Z,16.80
2022-11-29T09:08:20.060Z,18.15
2022-11-29T09:10:47.461Z,16.80
2022-11-29T09:13:14.932Z,16.08
2022-11-29T09:15:43.352Z,14.65
2022-11-29T09:18:10.467Z,13.40
2022-11-29T09:20:37.441Z,13.15
2022-11-29T09:23:04.702Z,13.65
2022-11-29T09:25:31.748Z,13.82
2022-11-29T09:28:01.786Z,15.40
2022-11-29T09:30:32.395Z,13.60
2022-11-29T09:33:02.588Z,13.93
2022-11-29T09:35:29.916Z,11.88
2022-11-29T09:37:56.958Z,10.95
2022-11-29T09:40:33.863Z,11.55
2022-11-29T09:43:14.053Z,12.43
2022-11-29T09:45:45.361Z,11.30
2022-11-29T09:48:30.968Z,11.82
2022-11-29T09:51:27.353Z,13.73
2022-11-29T09:54:12.779Z,12.15
2022-11-29T09:56:46.331Z,12.05
2022-11-29T09:59:31.526Z,10.77
2022-11-29T10:02:06.046Z,10.48
2022-11-29T10:04:40.279Z,11.63
2022-11-29T10:07:27.958Z,10.25
2022-11-29T10:10:06.742Z,11.00
2022-11-29T10:13:04.982Z,12.13
2022-11-29T10:15:39.090Z,12.20
2022-11-29T10:18:24.489Z,11.82
2022-11-29T10:20:57.462Z,11.45
2022-11-29T10:23:24.467Z,10.45
2022-11-29T10:25:54.309Z,13.25
2022-11-29T10:28:25.777Z,12.35
2022-11-29T10:30:54.513Z,11.38
2022-11-29T10:33:28.919Z,10.48
2022-11-29T10:35:59.329Z,9.32
2022-11-29T10:38:31.162Z,8.13
2022-11-29T10:41:09.528Z,7.55
2022-11-29T10:43:37.700Z,8.25
2022-11-29T10:46:06.339Z,7.65
2022-11-29T10:48:34.154Z,5.95
2022-11-29T10:51:01.590Z,7.13
2022-11-29T10:53:37.004Z,6.80
2022-11-29T10:56:08.703Z,8.63
2022-11-29T10:58:36.456Z,6.93
2022-11-29T11:01:08.506Z,5.38
2022-11-29T11:03:52.810Z,6.40
2022-11-29T11:06:23.124Z,5.32
2022-11-29T11:08:54.428Z,3.85
2022-11-29T11:11:31.312Z,4.93
2022-11-29T11:14:18.567Z,4.75
2022-11-29T11:16:45.608Z,4.30
2022-11-29T11:19:28.542Z,4.47
2022-11-29T11:24:32.223Z,5.75
2022-11-29T11:27:00.446Z,4.63
2022-11-29T11:29:39.545Z,4.65
2022-11-29T11:32:18.622Z,4.20
2022-11-29T11:34:57.499Z,3.50
2022-11-29T11:37:33.033Z,4.45
2022-11-29T11:40:31.429Z,6.70
2022-11-29T11:43:01.148Z,4.25
2022-11-29T11:45:36.633Z,4.35
2022-11-29T11:48:15.400Z,4.30
2022-11-29T11:50:45.105Z,4.40
2022-11-29T11:53:27.463Z,4.57
2022-11-29T11:55:59.098Z,4.55
2022-11-29T11:58:32.705Z,5.30
2022-11-29T12:01:14.518Z,5.32
2022-11-29T12:03:56.804Z,4.25
2022-11-29T12:06:48.676Z,10.85
2022-11-29T12:09:37.351Z,4.93
2022-11-29T12:12:21.150Z,4.90
2022-11-29T12:14:52.672Z,5.70
2022-11-29T12:17:41.281Z,5.75
2022-11-29T12:20:23.976Z,5.70
2022-11-29T12:23:11.027Z,5.63
2022-11-29T12:25:51.857Z,5.15
2022-11-29T12:28:21.029Z,5.57
2022-11-29T12:31:26.803Z,4.80
2022-11-29T12:34:05.683Z,5.43
2022-11-29T12:37:02.468Z,5.65
2022-11-29T12:39:57.642Z,4.78
2022-11-29T12:42:38.302Z,5.70
2022-11-29T12:45:19.548Z,4.43
2022-11-29T12:48:05.037Z,5.45
2022-11-29T12:50:59.779Z,4.65
2022-11-29T12:54:12.017Z,5.45
2022-11-29T12:57:05.297Z,5.75
2022-11-29T12:59:50.897Z,6.18
2022-11-29T13:02:54.419Z,5.28
2022-11-29T13:05:30.554Z,5.97
2022-11-29T13:08:16.477Z,8.35
2022-11-29T13:10:58.063Z,6.03
2022-11-29T13:13:39.552Z,6.25
2022-11-29T13:16:25.079Z,6.45
2022-11-29T13:19:04.519Z,4.95
2022-11-29T13:21:55.439Z,5.28
2022-11-29T13:24:32.320Z,5.50
2022-11-29T13:27:03.921Z,5.72
2022-11-29T13:29:31.308Z,5.65
2022-11-29T13:31:58.845Z,4.47
2022-11-29T13:34:36.233Z,6.72
2022-11-29T13:37:26.590Z,5.35
2022-11-29T13:40:38.118Z,6.10
2022-11-29T13:43:23.501Z,6.47
2022-11-29T13:46:19.510Z,4.25
2022-11-29T13:48:47.774Z,4.35
2022-11-29T13:51:25.854Z,4.32
2022-11-29T13:53:55.029Z,4.45
2022-11-29T13:56:36.053Z,3.53
2022-11-29T13:59:08.813Z,4.78
2022-11-29T14:01:50.909Z,4.18
2022-11-29T14:04:35.976Z,4.15
2022-11-29T14:07:07.552Z,4.43
2022-11-29T14:09:42.025Z,4.03
2022-11-29T14:12:26.317Z,4.45
2022-11-29T14:15:18.235Z,4.97
2022-11-29T14:17:52.656Z,4.43
2022-11-29T14:20:22.722Z,3.58
2022-11-29T14:23:14.436Z,4.45
2022-11-29T14:26:02.969Z,3.67
2022-11-29T14:28:32.629Z,5.25
2022-11-29T14:31:04.882Z,4.82
2022-11-29T14:33:46.188Z,4.93
2022-11-29T14:36:18.924Z,4.50
2022-11-29T14:39:01.992Z,5.80
2022-11-29T14:41:50.573Z,4.50
2022-11-29T14:44:24.613Z,4.38
2022-11-29T14:47:06.413Z,4.53
2022-11-29T14:49:41.795Z,4.53
2022-11-29T14:52:18.733Z,4.07
2022-11-29T14:54:56.585Z,4.18
2022-11-29T14:57:51.724Z,5.22
2022-11-29T15:00:23.294Z,6.10
2022-11-29T15:02:57.814Z,7.97
2022-11-29T15:05:31.972Z,5.57
2022-11-29T15:08:13.118Z,6.45
2022-11-29T15:10:44.820Z,4.57
2022-11-29T15:13:18.693Z,5.00
2022-11-29T15:16:19.901Z,4.95
2022-11-29T15:19:18.092Z,4.68
2022-11-29T15:22:17.471Z,5.30
2022-11-29T15:24:52.837Z,7.05
2022-11-29T15:27:20.304Z,6.80
2022-11-29T15:29:50.485Z,6.63
2022-11-29T15:32:32.582Z,6.38
2022-11-29T15:34:59.869Z,6.57
2022-11-29T15:37:36.568Z,7.90
2022-11-29T15:40:10.675Z,8.13
2022-11-29T15:42:44.085Z,7.07
2022-11-29T15:45:26.004Z,9.75
2022-11-29T15:47:53.514Z,6.43
2022-11-29T15:50:31.939Z,7.53
2022-11-29T15:53:07.810Z,7.53
2022-11-29T15:55:35.714Z,11.45
2022-11-29T15:58:08.668Z,7.60
2022-11-29T16:00:36.684Z,7.93
2022-11-29T16:03:05.342Z,7.60
2022-11-29T16:05:36.178Z,7.47
2022-11-29T16:08:07.744Z,6.95
2022-11-29T16:10:40.152Z,8.15
2022-11-29T16:16:23.354Z,11.55
2022-11-29T16:18:51.032Z,9.88
2022-11-29T16:21:31.056Z,9.80
2022-11-29T16:23:58.809Z,7.50
2022-11-29T16:26:35.725Z,8.45
2022-11-29T16:29:02.808Z,8.73
2022-11-29T16:31:38.325Z,8.45
2022-11-29T16:34:18.447Z,9.15
2022-11-29T16:36:45.772Z,8.23
2022-11-29T16:39:23.666Z,9.95
2022-11-29T16:42:12.226Z,8.55
2022-11-29T16:44:39.464Z,10.00
2022-11-29T16:47:18.703Z,9.23
2022-11-29T16:49:46.341Z,10.10
2022-11-29T16:52:28.374Z,10.38
2022-11-29T16:54:55.518Z,11.35
2022-11-29T16:57:22.884Z,13.30
2022-11-29T16:59:50.454Z,11.57
2022-11-29T17:02:17.900Z,12.75
2022-11-29T17:04:45.479Z,12.07
2022-11-29T17:07:27.939Z,11.43
2022-11-29T17:09:55.997Z,11.65
2022-11-29T17:12:23.026Z,12.75
2022-11-29T17:14:50.037Z,11.07
2022-11-29T17:17:19.545Z,11.73
2022-11-29T17:19:46.589Z,12.13
2022-11-29T17:22:13.828Z,14.23
2022-11-29T17:24:46.221Z,16.00
2022-11-29T17:27:14.962Z,14.98
2022-11-29T17:29:41.993Z,15.07
2022-11-29T17:32:10.254Z,13.98
2022-11-29T17:34:37.321Z,14.20
2022-11-29T17:37:04.310Z,14.88
2022-11-29T17:39:31.913Z,15.50
2022-11-29T17:41:58.914Z,15.55
2022-11-29T17:44:25.968Z,14.57
2022-11-29T17:46:53.014Z,16.77
2022-11-29T17:49:20.057Z,18.48
2022-11-29T17:51:53.066Z,18.25
2022-11-29T17:54:21.394Z,16.27
2022-11-29T17:56:49.427Z,16.33
2022-11-29T17:59:16.549Z,19.73
2022-11-29T18:01:43.726Z,21.02
2022-11-29T18:04:10.805Z,20.65
2022-11-29T18:06:40.088Z,20.75
2022-11-29T18:09:09.344Z,22.05
2022-11-29T18:11:46.363Z,21.33
2022-11-29T18:14:23.619Z,23.98
2022-11-29T18:16:51.404Z,21.50
2022-11-29T18:19:20.259Z,23.55
2022-11-29T18:21:51.571Z,22.10
2022-11-29T18:24:18.932Z,24.75
2022-11-29T18:26:46.023Z,23.13
2022-11-29T18:29:13.113Z,23.25
2022-11-29T18:31:43.070Z,21.08
2022-11-29T18:34:11.819Z,18.33
2022-11-29T18:36:44.930Z,19.10
2022-11-29T18:39:14.981Z,19.70
2022-11-29T18:41:44.593Z,20.38
2022-11-29T18:44:14.114Z,19.58
2022-11-29T18:46:43.432Z,21.20
2022-11-29T18:49:13.611Z,20.63
2022-11-29T18:51:44.240Z,20.27
2022-11-29T18:54:11.482Z,20.20
2022-11-29T18:56:38.747Z,18.52
2022-11-29T18:59:11.457Z,23.00
2022-11-29T19:01:43.127Z,23.85
2022-11-29T19:04:12.738Z,22.70
2022-11-29T19:06:40.993Z,21.35
2022-11-29T19:09:13.097Z,23.17
2022-11-29T19:11:40.555Z,23.15
2022-11-29T19:14:11.428Z,22.63
2022-11-29T19:16:41.579Z,24.77
2022-11-29T19:19:08.768Z,24.50
2022-11-29T19:21:36.058Z,24.60
2022-11-29T19:24:07.485Z,26.42
2022-11-29T19:26:34.605Z,26.67
2022-11-29T19:29:01.811Z,28.10
2022-11-29T19:31:29.286Z,27.02
2022-11-29T19:33:57.467Z,26.05
2022-11-29T19:36:29.772Z,26.95
2022-11-29T19:38:59.587Z,27.13
2022-11-29T19:41:29.800Z,29.83
2022-11-29T19:44:02.455Z,30.45
2022-11-29T19:46:38.136Z,28.70
2022-11-29T19:49:06.890Z,30.80
2022-11-29T19:51:35.475Z,29.33
2022-11-29T19:54:05.619Z,28.88
2022-11-29T19:56:33.064Z,28.55
2022-11-29T19:59:00.174Z,28.10
2022-11-29T20:01:40.205Z,26.85
2022-11-29T20:04:08.285Z,27.83
2022-11-29T20:06:35.678Z,27.60
2022-11-29T20:09:02.975Z,28.77
2022-11-29T20:11:30.673Z,30.65
2022-11-29T20:14:00.857Z,28.45
2022-11-29T20:16:29.667Z,30.00
2022-11-29T20:18:57.693Z,26.85
2022-11-29T20:21:30.358Z,28.55
2022-11-29T20:24:05.563Z,28.83
2022-11-29T20:26:35.890Z,28.38
2022-11-29T20:29:04.584Z,32.20
2022-11-29T20:31:32.943Z,29.23
2022-11-29T20:34:00.592Z,29.63
2022-11-29T20:36:46.212Z,28.45
2022-11-29T20:39:43.569Z,27.83
2022-11-29T20:42:10.606Z,27.02
2022-11-29T20:44:45.472Z,27.95
2022-11-29T20:47:20.844Z,26.73
2022-11-29T20:49:48.877Z,27.08
2022-11-29T20:52:32.047Z,27.80
2022-11-29T20:54:59.191Z,25.80
2022-11-29T20:57:26.231Z,25.45
2022-11-29T20:59:53.316Z,28.65
2022-11-29T21:02:21.011Z,29.55
2022-11-29T21:04:48.954Z,28.88
2022-11-29T21:07:16.464Z,28.48
2022-11-29T21:09:43.583Z,27.60
2022-11-29T21:12:11.232Z,26.77
2022-11-29T21:14:38.655Z,31.27
2022-11-29T21:17:06.554Z,29.52
2022-11-29T21:19:34.185Z,28.08
2022-11-29T21:22:23.178Z,26.85
2022-11-29T21:25:14.250Z,29.13
2022-11-29T21:27:41.821Z,27.73
2022-11-29T21:30:21.726Z,27.48
2022-11-29T21:32:49.563Z,27.55
2022-11-29T21:35:17.289Z,30.65
2022-11-29T21:37:45.268Z,26.33
2022-11-29T21:40:13.625Z,26.25
2022-11-29T21:42:41.062Z,27.67
2022-11-29T21:45:14.800Z,26.05
2022-11-29T21:47:43.992Z,27.40
2022-11-29T21:50:12.205Z,28.30
2022-11-29T21:52:39.342Z,30.38
2022-11-29T21:55:06.626Z,25.25
2022-11-29T21:57:33.713Z,27.38
2022-11-29T22:00:00.860Z,26.48
2022-11-29T22:02:27.976Z,23.63
2022-11-29T22:04:55.067Z,27.38
2022-11-29T22:07:22.099Z,26.92
2022-11-29T22:09:49.140Z,25.75
2022-11-29T22:12:33.171Z,29.08
2022-11-29T22:15:01.633Z,26.77
2022-11-29T22:17:28.743Z,27.83
2022-11-29T22:19:55.755Z,26.50
2022-11-29T22:22:23.642Z,27.38
2022-11-29T22:24:53.085Z,27.95
2022-11-29T22:27:20.695Z,29.55
2022-11-29T22:29:47.832Z,27.75
2022-11-29T22:32:15.192Z,27.60
2022-11-29T22:34:42.472Z,27.17
2022-11-29T22:37:09.698Z,26.65
2022-11-29T22:39:36.685Z,25.02
2022-11-29T22:42:03.819Z,25.30
2022-11-29T22:44:31.229Z,25.02
2022-11-29T22:46:58.327Z,26.17
2022-11-29T22:49:25.531Z,26.05
2022-11-29T22:51:53.345Z,24.63
2022-11-29T22:54:20.614Z,23.52
2022-11-29T22:56:47.739Z,26.15
2022-11-29T22:59:14.744Z,25.90
2022-11-29T23:01:42.470Z,26.48
2022-11-29T23:04:11.155Z,25.60
2022-11-29T23:06:41.389Z,26.13
2022-11-29T23:09:12.046Z,24.45
2022-11-29T23:11:39.285Z,26.38
2022-11-29T23:14:06.412Z,26.25
2022-11-29T23:16:33.658Z,26.40
2022-11-29T23:19:02.949Z,24.75
2022-11-29T23:21:32.702Z,25.48
2022-11-29T23:24:00.862Z,25.17
2022-11-29T23:26:30.612Z,25.67
2022-11-29T23:28:58.350Z,24.15
2022-11-29T23:31:25.495Z,25.02
2022-11-29T23:33:52.593Z,26.25
2022-11-29T23:36:20.032Z,24.42
2022-11-29T23:38:47.451Z,26.63
2022-11-29T23:41:14.844Z,26.58
2022-11-29T23:43:42.341Z,26.55
2022-11-29T23:46:13.625Z,24.33
2022-11-29T23:48:41.416Z,24.90
2022-11-29T23:51:09.158Z,25.35
2022-11-29T23:53:36.437Z,24.20
2022-11-29T23:56:06.773Z,25.92
2022-11-29T23:58:35.621Z,25.23
